createdAt,value
2019-04-20T00:00:46.078Z,1028.22
2019-04-20T00:01:40.962Z,1028.20
2019-04-20T00:02:39.888Z,1028.18
2019-04-20T00:03:42.328Z,1028.22
2019-04-20T00:04:41.139Z,1028.19
2019-04-20T00:05:39.446Z,1028.21
2019-04-20T00:06:46.270Z,1028.18
2019-04-20T00:07:41.751Z,1028.15
2019-04-20T00:08:42.355Z,1028.17
2019-04-20T00:09:41.696Z,1028.12
2019-04-20T00:10:47.386Z,1028.16
2019-04-20T00:11:50.206Z,1028.19
2019-04-20T00:12:53.390Z,1028.14
2019-04-20T00:13:47.727Z,1028.12
2019-04-20T00:14:41.300Z,1028.15
2019-04-20T00:15:39.326Z,1028.10
2019-04-20T00:16:39.923Z,1028.06
2019-04-20T00:17:47.630Z,1028.06
2019-04-20T00:18:46.590Z,1028.02
2019-04-20T00:19:45.621Z,1028.11
2019-04-20T00:20:40.724Z,1028.08
2019-04-20T00:21:47.362Z,1028.03
2019-04-20T00:22:46.926Z,1028.02
2019-04-20T00:23:43.843Z,1028.03
2019-04-20T00:24:41.073Z,1028.02
2019-04-20T00:25:53.195Z,1028.06
2019-04-20T00:27:59.610Z,1027.99
2019-04-20T00:29:00.175Z,1028.03
2019-04-20T00:29:54.238Z,1027.98
2019-04-20T00:30:58.744Z,1027.96
2019-04-20T00:31:55.533Z,1027.96
2019-04-20T00:32:53.228Z,1027.92
2019-04-20T00:33:52.838Z,1027.90
2019-04-20T00:34:43.639Z,1027.91
2019-04-20T00:35:40.229Z,1027.90
2019-04-20T00:36:39.304Z,1027.92
2019-04-20T00:37:40.214Z,1027.93
2019-04-20T00:38:45.291Z,1027.94
2019-04-20T00:39:40.570Z,1027.94
2019-04-20T00:40:39.283Z,1027.91
2019-04-20T00:41:44.159Z,1027.91
2019-04-20T00:42:46.822Z,1027.93
2019-04-20T00:43:42.054Z,1027.93
2019-04-20T00:44:41.317Z,1027.91
2019-04-20T00:45:46.757Z,1027.90
2019-04-20T00:46:53.482Z,1027.88
2019-04-20T00:47:48.969Z,1027.86
2019-04-20T00:48:48.386Z,1027.88
2019-04-20T00:49:55.098Z,1027.88
2019-04-20T00:50:57.215Z,1027.84
2019-04-20T00:52:05.170Z,1027.84
2019-04-20T00:52:54.263Z,1027.86
2019-04-20T00:53:44.947Z,1027.84
2019-04-20T00:54:41.141Z,1027.83
2019-04-20T00:55:39.877Z,1027.84
2019-04-20T00:56:39.297Z,1027.81
2019-04-20T00:57:47.687Z,1027.86
2019-04-20T00:58:54.749Z,1027.84
2019-04-20T01:00:03.293Z,1027.87
2019-04-20T01:01:03.733Z,1027.80
2019-04-20T01:02:02.267Z,1027.82
2019-04-20T01:02:50.767Z,1027.83
2019-04-20T01:03:52.685Z,1027.76
2019-04-20T01:04:58.035Z,1027.78
2019-04-20T01:06:02.238Z,1027.78
2019-04-20T01:06:54.158Z,1027.80
2019-04-20T01:07:46.803Z,1027.78
2019-04-20T01:08:40.202Z,1027.75
2019-04-20T01:09:39.183Z,1027.74
2019-04-20T01:10:44.793Z,1027.75
2019-04-20T01:11:43.242Z,1027.73
2019-04-20T01:12:41.006Z,1027.70
2019-04-20T01:13:46.912Z,1027.72
2019-04-20T01:14:46.628Z,1027.76
2019-04-20T01:15:48.842Z,1027.76
2019-04-20T01:16:47.074Z,1027.76
2019-04-20T01:17:41.595Z,1027.77
2019-04-20T01:18:38.621Z,1027.72
2019-04-20T01:19:38.591Z,1027.69
2019-04-20T01:20:38.931Z,1027.72
2019-04-20T01:21:38.564Z,1027.70
2019-04-20T01:22:45.488Z,1027.70
2019-04-20T01:23:46.117Z,1027.70
2019-04-20T01:24:43.799Z,1027.70
2019-04-20T01:25:43.406Z,1027.65
2019-04-20T01:26:46.874Z,1027.63
2019-04-20T01:27:59.098Z,1027.65
2019-04-20T01:28:57.713Z,1027.61
2019-04-20T01:29:47.807Z,1027.60
2019-04-20T01:30:44.442Z,1027.59
2019-04-20T01:31:55.741Z,1027.60
2019-04-20T01:32:57.631Z,1027.59
2019-04-20T01:33:50.636Z,1027.60
2019-04-20T01:34:52.505Z,1027.59
2019-04-20T01:35:53.570Z,1027.59
2019-04-20T01:36:55.666Z,1027.56
2019-04-20T01:37:57.419Z,1027.63
2019-04-20T01:38:52.273Z,1027.60
2019-04-20T01:39:45.197Z,1027.58
2019-04-20T01:40:40.215Z,1027.65
2019-04-20T01:41:39.305Z,1027.57
2019-04-20T01:42:38.393Z,1027.59
2019-04-20T01:43:39.505Z,1027.60
2019-04-20T01:44:43.399Z,1027.59
2019-04-20T01:45:42.405Z,1027.61
2019-04-20T01:46:39.113Z,1027.61
2019-04-20T01:47:45.595Z,1027.56
2019-04-20T01:48:41.473Z,1027.59
2019-04-20T01:49:39.054Z,1027.56
2019-04-20T01:50:50.827Z,1027.60
2019-04-20T01:51:48.266Z,1027.59
2019-04-20T01:52:50.714Z,1027.65
2019-04-20T01:53:50.376Z,1027.58
2019-04-20T01:55:02.694Z,1027.63
2019-04-20T01:55:50.672Z,1027.64
2019-04-20T01:56:53.181Z,1027.62
2019-04-20T01:58:00.592Z,1027.64
2019-04-20T01:58:58.212Z,1027.61
2019-04-20T01:59:52.001Z,1027.66
2019-04-20T02:00:42.117Z,1027.63
2019-04-20T02:01:42.383Z,1027.64
2019-04-20T02:02:45.917Z,1027.60
2019-04-20T02:03:43.966Z,1027.60
2019-04-20T02:04:45.191Z,1027.58
2019-04-20T02:05:40.721Z,1027.56
2019-04-20T02:06:43.385Z,1027.57
2019-04-20T02:07:44.575Z,1027.57
2019-04-20T02:08:40.083Z,1027.60
2019-04-20T02:09:45.790Z,1027.57
2019-04-20T02:10:45.994Z,1027.60
2019-04-20T02:11:42.686Z,1027.60
2019-04-20T02:12:40.860Z,1027.62
2019-04-20T02:13:44.434Z,1027.62
2019-04-20T02:14:46.303Z,1027.62
2019-04-20T02:15:46.435Z,1027.64
2019-04-20T02:16:44.004Z,1027.64
2019-04-20T02:17:46.127Z,1027.61
2019-04-20T02:18:57.995Z,1027.62
2019-04-20T02:19:59.768Z,1027.62
2019-04-20T02:20:59.651Z,1027.64
2019-04-20T02:21:55.462Z,1027.63
2019-04-20T02:22:55.323Z,1027.61
2019-04-20T02:23:47.985Z,1027.62
2019-04-20T02:24:38.863Z,1027.61
2019-04-20T02:25:37.848Z,1027.58
2019-04-20T02:26:38.870Z,1027.62
2019-04-20T02:27:45.447Z,1027.63
2019-04-20T02:29:05.675Z,1027.66
2019-04-20T02:29:58.506Z,1027.60
2019-04-20T02:31:15.955Z,1027.63
2019-04-20T02:32:19.824Z,1027.66
2019-04-20T02:33:18.338Z,1027.64
2019-04-20T02:35:14.139Z,1027.64
2019-04-20T02:36:27.620Z,1027.62
2019-04-20T02:37:14.033Z,1027.62
2019-04-20T02:40:13.058Z,1027.63
2019-04-20T02:41:11.459Z,1027.62
2019-04-20T02:43:28.435Z,1027.66
2019-04-20T02:44:14.337Z,1027.66
2019-04-20T02:45:18.749Z,1027.64
2019-04-20T02:46:06.489Z,1027.61
2019-04-20T02:47:14.091Z,1027.64
2019-04-20T02:49:10.130Z,1027.62
2019-04-20T02:50:07.000Z,1027.59
2019-04-20T02:52:06.735Z,1027.63
2019-04-20T02:55:12.498Z,1027.62
2019-04-20T02:56:06.588Z,1027.64
2019-04-20T02:57:10.302Z,1027.63
2019-04-20T02:58:05.192Z,1027.62
2019-04-20T02:59:30.817Z,1027.62
2019-04-20T03:00:08.963Z,1027.64
2019-04-20T03:00:52.674Z,1027.65
2019-04-20T03:01:53.491Z,1027.66
2019-04-20T03:02:47.367Z,1027.74
2019-04-20T03:03:39.063Z,1027.69
2019-04-20T03:04:42.451Z,1027.68
2019-04-20T03:05:41.173Z,1027.65
2019-04-20T03:06:53.825Z,1027.66
2019-04-20T03:07:55.263Z,1027.62
2019-04-20T03:08:56.594Z,1027.65
2019-04-20T03:09:54.250Z,1027.67
2019-04-20T03:11:03.640Z,1027.66
2019-04-20T03:12:13.670Z,1027.68
2019-04-20T03:12:50.730Z,1027.65
2019-04-20T03:13:54.591Z,1027.68
2019-04-20T03:14:48.748Z,1027.69
2019-04-20T03:15:55.030Z,1027.68
2019-04-20T03:16:51.820Z,1027.68
2019-04-20T03:17:51.255Z,1027.68
2019-04-20T03:18:50.521Z,1027.70
2019-04-20T03:19:48.723Z,1027.72
2019-04-20T03:20:53.685Z,1027.74
2019-04-20T03:21:58.296Z,1027.73
2019-04-20T03:23:13.111Z,1027.74
2019-04-20T03:24:00.936Z,1027.74
2019-04-20T03:24:54.032Z,1027.73
2019-04-20T03:25:55.907Z,1027.74
2019-04-20T03:26:50.565Z,1027.73
2019-04-20T03:27:46.185Z,1027.70
2019-04-20T03:28:51.516Z,1027.72
2019-04-20T03:29:52.350Z,1027.69
2019-04-20T03:31:37.100Z,1027.68
2019-04-20T03:33:17.866Z,1027.70
2019-04-20T03:34:13.003Z,1027.66
2019-04-20T03:35:17.439Z,1027.71
2019-04-20T03:35:58.560Z,1027.64
2019-04-20T03:37:25.113Z,1027.70
2019-04-20T03:37:55.597Z,1027.67
2019-04-20T03:38:47.942Z,1027.64
2019-04-20T03:39:47.676Z,1027.66
2019-04-20T03:40:46.488Z,1027.67
2019-04-20T03:41:38.468Z,1027.67
2019-04-20T03:42:33.012Z,1027.61
2019-04-20T03:43:31.255Z,1027.59
2019-04-20T03:44:34.019Z,1027.58
2019-04-20T03:45:37.446Z,1027.62
2019-04-20T03:46:42.003Z,1027.61
2019-04-20T03:47:42.497Z,1027.57
2019-04-20T03:48:50.765Z,1027.59
2019-04-20T03:49:54.797Z,1027.63
2019-04-20T03:50:53.265Z,1027.64
2019-04-20T03:51:53.415Z,1027.64
2019-04-20T03:52:57.751Z,1027.63
2019-04-20T03:53:50.287Z,1027.63
2019-04-20T03:54:43.499Z,1027.67
2019-04-20T03:55:51.610Z,1027.66
2019-04-20T03:56:49.213Z,1027.70
2019-04-20T03:57:51.671Z,1027.72
2019-04-20T03:58:47.233Z,1027.70
2019-04-20T03:59:53.313Z,1027.69
2019-04-20T04:00:51.733Z,1027.71
2019-04-20T04:03:01.533Z,1027.68
2019-04-20T04:03:58.790Z,1027.68
2019-04-20T04:04:53.623Z,1027.66
2019-04-20T04:05:46.898Z,1027.65
2019-04-20T04:06:41.638Z,1027.62
2019-04-20T04:07:38.687Z,1027.64
2019-04-20T04:08:38.057Z,1027.65
2019-04-20T04:09:39.792Z,1027.67
2019-04-20T04:10:48.515Z,1027.70
2019-04-20T04:11:48.527Z,1027.72
2019-04-20T04:12:37.126Z,1027.73
2019-04-20T04:13:31.452Z,1027.77
2019-04-20T04:14:30.912Z,1027.74
2019-04-20T04:15:31.690Z,1027.74
2019-04-20T04:16:38.383Z,1027.80
2019-04-20T04:17:38.374Z,1027.78
2019-04-20T04:18:38.624Z,1027.77
2019-04-20T04:19:36.656Z,1027.76
2019-04-20T04:20:38.778Z,1027.73
2019-04-20T04:21:49.794Z,1027.74
2019-04-20T04:22:50.021Z,1027.75
2019-04-20T04:23:51.467Z,1027.76
2019-04-20T04:24:40.648Z,1027.73
2019-04-20T04:25:50.079Z,1027.72
2019-04-20T04:26:47.436Z,1027.69
2019-04-20T04:27:52.209Z,1027.69
2019-04-20T04:28:47.491Z,1027.71
2019-04-20T04:29:52.379Z,1027.74
2019-04-20T04:30:47.579Z,1027.76
2019-04-20T04:32:00.361Z,1027.73
2019-04-20T04:33:12.442Z,1027.71
2019-04-20T04:33:55.551Z,1027.74
2019-04-20T04:34:48.952Z,1027.76
2019-04-20T04:35:48.181Z,1027.78
2019-04-20T04:36:54.008Z,1027.79
2019-04-20T04:37:48.526Z,1027.75
2019-04-20T04:38:53.493Z,1027.76
2019-04-20T04:39:56.324Z,1027.78
2019-04-20T04:41:01.980Z,1027.72
2019-04-20T04:42:03.663Z,1027.68
2019-04-20T04:42:52.308Z,1027.73
2019-04-20T04:43:51.080Z,1027.73
2019-04-20T04:44:43.277Z,1027.77
2019-04-20T04:45:33.390Z,1027.71
2019-04-20T04:46:34.833Z,1027.72
2019-04-20T04:47:32.672Z,1027.74
2019-04-20T04:48:35.594Z,1027.68
2019-04-20T04:49:36.537Z,1027.71
2019-04-20T04:50:32.946Z,1027.70
2019-04-20T04:51:42.691Z,1027.72
2019-04-20T04:52:44.722Z,1027.66
2019-04-20T04:53:44.241Z,1027.77
2019-04-20T04:54:41.020Z,1027.71
2019-04-20T04:55:39.434Z,1027.75
2019-04-20T04:56:32.014Z,1027.71
2019-04-20T04:57:30.534Z,1027.70
2019-04-20T04:58:31.826Z,1027.76
2019-04-20T04:59:31.620Z,1027.74
2019-04-20T05:00:33.150Z,1027.74
2019-04-20T05:01:33.641Z,1027.70
2019-04-20T05:02:40.432Z,1027.72
2019-04-20T05:03:54.008Z,1027.74
2019-04-20T05:04:58.417Z,1027.72
2019-04-20T05:05:49.371Z,1027.70
2019-04-20T05:06:43.443Z,1027.74
2019-04-20T05:07:46.730Z,1027.73
2019-04-20T05:08:41.317Z,1027.76
2019-04-20T05:09:31.792Z,1027.74
2019-04-20T05:10:30.774Z,1027.72
2019-04-20T05:11:30.283Z,1027.72
2019-04-20T05:12:33.411Z,1027.70
2019-04-20T05:13:37.080Z,1027.72
2019-04-20T05:14:43.252Z,1027.73
2019-04-20T05:15:46.209Z,1027.71
2019-04-20T05:16:51.280Z,1027.75
2019-04-20T05:17:48.364Z,1027.74
2019-04-20T05:19:11.587Z,1027.73
2019-04-20T05:19:55.263Z,1027.77
2019-04-20T05:20:54.648Z,1027.82
2019-04-20T05:21:58.653Z,1027.85
2019-04-20T05:22:50.981Z,1027.83
2019-04-20T05:23:41.407Z,1027.81
2019-04-20T05:24:55.265Z,1027.82
2019-04-20T05:26:57.928Z,1027.83
2019-04-20T05:27:51.216Z,1027.80
2019-04-20T05:28:43.908Z,1027.82
2019-04-20T05:29:34.541Z,1027.77
2019-04-20T05:30:33.630Z,1027.76
2019-04-20T05:31:42.352Z,1027.76
2019-04-20T05:32:44.090Z,1027.75
2019-04-20T05:33:59.666Z,1027.70
2019-04-20T05:34:58.396Z,1027.72
2019-04-20T05:35:52.001Z,1027.67
2019-04-20T05:36:49.334Z,1027.71
2019-04-20T05:38:08.087Z,1027.71
2019-04-20T05:38:58.223Z,1027.69
2019-04-20T05:39:50.451Z,1027.71
2019-04-20T05:40:51.431Z,1027.71
2019-04-20T05:41:48.614Z,1027.71
2019-04-20T05:42:54.485Z,1027.72
2019-04-20T05:43:49.692Z,1027.73
2019-04-20T05:44:54.194Z,1027.77
2019-04-20T05:45:45.077Z,1027.73
2019-04-20T05:46:47.682Z,1027.77
2019-04-20T05:47:48.434Z,1027.75
2019-04-20T05:48:50.950Z,1027.77
2019-04-20T05:49:46.805Z,1027.78
2019-04-20T05:50:52.137Z,1027.77
2019-04-20T05:51:49.841Z,1027.77
2019-04-20T05:52:56.160Z,1027.76
2019-04-20T05:53:50.400Z,1027.71
2019-04-20T05:54:51.230Z,1027.71
2019-04-20T05:55:49.250Z,1027.65
2019-04-20T05:56:53.883Z,1027.66
2019-04-20T05:57:56.717Z,1027.67
2019-04-20T05:58:50.818Z,1027.65
2019-04-20T05:59:55.997Z,1027.67
2019-04-20T06:00:55.471Z,1027.63
2019-04-20T06:02:02.165Z,1027.68
2019-04-20T06:02:52.396Z,1027.71
2019-04-20T06:03:48.807Z,1027.72
2019-04-20T06:05:02.250Z,1027.73
2019-04-20T06:05:57.869Z,1027.74
2019-04-20T06:06:52.989Z,1027.73
2019-04-20T06:07:48.870Z,1027.75
2019-04-20T06:08:59.916Z,1027.70
2019-04-20T06:09:55.910Z,1027.74
2019-04-20T06:10:50.799Z,1027.72
2019-04-20T06:12:02.971Z,1027.71
2019-04-20T06:12:51.747Z,1027.69
2019-04-20T06:13:44.296Z,1027.72
2019-04-20T06:14:46.801Z,1027.69
2019-04-20T06:15:46.727Z,1027.69
2019-04-20T06:16:56.843Z,1027.75
2019-04-20T06:17:49.336Z,1027.74
2019-04-20T06:18:40.225Z,1027.74
2019-04-20T06:19:54.621Z,1027.77
2019-04-20T06:20:52.561Z,1027.76
2019-04-20T06:21:57.479Z,1027.77
2019-04-20T06:22:52.562Z,1027.74
2019-04-20T06:24:53.142Z,1027.75
2019-04-20T06:26:11.107Z,1027.78
2019-04-20T06:26:54.045Z,1027.81
2019-04-20T06:27:52.748Z,1027.77
2019-04-20T06:28:48.997Z,1027.76
2019-04-20T06:29:45.569Z,1027.73
2019-04-20T06:30:45.556Z,1027.74
2019-04-20T06:31:51.815Z,1027.78
2019-04-20T06:32:52.325Z,1027.77
2019-04-20T06:34:19.854Z,1027.77
2019-04-20T06:34:51.873Z,1027.77
2019-04-20T06:36:10.270Z,1027.76
2019-04-20T06:36:49.837Z,1027.76
2019-04-20T06:38:03.050Z,1027.78
2019-04-20T06:39:02.227Z,1027.74
2019-04-20T06:39:55.977Z,1027.74
2019-04-20T06:40:59.397Z,1027.76
2019-04-20T06:42:08.128Z,1027.77
2019-04-20T06:42:53.476Z,1027.76
2019-04-20T06:43:55.749Z,1027.74
2019-04-20T06:44:53.605Z,1027.77
2019-04-20T06:45:56.790Z,1027.78
2019-04-20T06:46:58.766Z,1027.82
2019-04-20T06:47:52.119Z,1027.75
2019-04-20T06:48:51.705Z,1027.76
2019-04-20T06:49:48.663Z,1027.75
2019-04-20T06:50:52.493Z,1027.77
2019-04-20T06:51:52.961Z,1027.75
2019-04-20T06:52:45.284Z,1027.75
2019-04-20T06:53:47.517Z,1027.78
2019-04-20T06:54:48.562Z,1027.74
2019-04-20T06:55:57.383Z,1027.76
2019-04-20T06:56:54.057Z,1027.80
2019-04-20T06:57:56.296Z,1027.78
2019-04-20T06:58:49.859Z,1027.80
2019-04-20T06:59:47.390Z,1027.77
2019-04-20T07:00:53.446Z,1027.79
2019-04-20T07:01:56.373Z,1027.75
2019-04-20T07:02:49.008Z,1027.73
2019-04-20T07:04:00.650Z,1027.76
2019-04-20T07:04:58.102Z,1027.77
2019-04-20T07:05:54.673Z,1027.75
2019-04-20T07:07:00.506Z,1027.78
2019-04-20T07:07:54.717Z,1027.76
2019-04-20T07:10:05.171Z,1027.79
2019-04-20T07:11:10.958Z,1027.78
2019-04-20T07:11:50.494Z,1027.75
2019-04-20T07:12:46.995Z,1027.79
2019-04-20T07:13:41.276Z,1027.72
2019-04-20T07:14:43.955Z,1027.72
2019-04-20T07:15:48.709Z,1027.74
2019-04-20T07:16:53.081Z,1027.76
2019-04-20T07:18:50.670Z,1027.76
2019-04-20T07:19:44.480Z,1027.76
2019-04-20T07:20:55.625Z,1027.80
2019-04-20T07:22:02.274Z,1027.77
2019-04-20T07:22:52.438Z,1027.74
2019-04-20T07:23:55.847Z,1027.77
2019-04-20T07:25:05.409Z,1027.73
2019-04-20T07:26:04.914Z,1027.74
2019-04-20T07:26:49.284Z,1027.70
2019-04-20T07:27:53.560Z,1027.70
2019-04-20T07:28:53.023Z,1027.71
2019-04-20T07:29:51.918Z,1027.74
2019-04-20T07:30:52.050Z,1027.74
2019-04-20T07:31:48.481Z,1027.75
2019-04-20T07:33:04.442Z,1027.76
2019-04-20T07:33:52.118Z,1027.72
2019-04-20T07:34:51.534Z,1027.76
2019-04-20T07:35:50.719Z,1027.76
2019-04-20T07:37:04.801Z,1027.73
2019-04-20T07:38:54.234Z,1027.77
2019-04-20T07:39:55.821Z,1027.80
2019-04-20T07:40:50.631Z,1027.81
2019-04-20T07:41:57.251Z,1027.85
2019-04-20T07:42:52.424Z,1027.82
2019-04-20T07:43:59.598Z,1027.85
2019-04-20T07:44:55.461Z,1027.89
2019-04-20T07:45:53.798Z,1027.85
2019-04-20T07:47:02.844Z,1027.91
2019-04-20T07:48:01.656Z,1027.85
2019-04-20T07:48:50.397Z,1027.83
2019-04-20T07:49:48.329Z,1027.84
2019-04-20T07:50:40.819Z,1027.80
2019-04-20T07:51:36.611Z,1027.81
2019-04-20T07:52:38.460Z,1027.82
2019-04-20T07:53:51.354Z,1027.81
2019-04-20T07:55:12.367Z,1027.81
2019-04-20T07:56:05.021Z,1027.85
2019-04-20T07:56:47.857Z,1027.87
2019-04-20T07:58:04.864Z,1027.83
2019-04-20T07:58:38.749Z,1027.86
2019-04-20T07:59:46.874Z,1027.84
2019-04-20T08:01:04.212Z,1027.79
2019-04-20T08:02:01.219Z,1027.84
2019-04-20T08:02:57.296Z,1027.81
2019-04-20T08:03:50.391Z,1027.81
2019-04-20T08:04:47.623Z,1027.80
2019-04-20T08:05:41.873Z,1027.80
2019-04-20T08:06:37.897Z,1027.83
2019-04-20T08:07:42.664Z,1027.82
2019-04-20T08:08:43.999Z,1027.81
2019-04-20T08:09:39.369Z,1027.77
2019-04-20T08:10:38.387Z,1027.80
2019-04-20T08:12:55.607Z,1027.79
2019-04-20T08:13:54.960Z,1027.79
2019-04-20T08:14:56.961Z,1027.83
2019-04-20T08:17:08.265Z,1027.82
2019-04-20T08:17:56.935Z,1027.83
2019-04-20T08:18:51.344Z,1027.75
2019-04-20T08:19:46.766Z,1027.77
2019-04-20T08:20:52.801Z,1027.72
2019-04-20T08:21:48.091Z,1027.74
2019-04-20T08:22:56.953Z,1027.72
2019-04-20T08:23:52.154Z,1027.69
2019-04-20T08:24:44.971Z,1027.67
2019-04-20T08:25:44.604Z,1027.69
2019-04-20T08:26:36.002Z,1027.72
2019-04-20T08:27:29.725Z,1027.70
2019-04-20T08:28:36.082Z,1027.68
2019-04-20T08:29:42.799Z,1027.71
2019-04-20T08:30:42.285Z,1027.72
2019-04-20T08:31:40.635Z,1027.72
2019-04-20T08:32:48.393Z,1027.73
2019-04-20T08:33:55.102Z,1027.69
2019-04-20T08:34:50.699Z,1027.69
2019-04-20T08:35:52.446Z,1027.72
2019-04-20T08:36:53.451Z,1027.68
2019-04-20T08:38:02.261Z,1027.60
2019-04-20T08:39:58.426Z,1027.60
2019-04-20T08:40:47.861Z,1027.64
2019-04-20T08:42:14.552Z,1027.59
2019-04-20T08:43:00.568Z,1027.61
2019-04-20T08:44:18.766Z,1027.62
2019-04-20T08:45:51.124Z,1027.60
2019-04-20T08:46:59.678Z,1027.65
2019-04-20T08:47:51.407Z,1027.64
2019-04-20T08:48:50.864Z,1027.64
2019-04-20T08:49:52.249Z,1027.66
2019-04-20T08:50:54.485Z,1027.63
2019-04-20T08:51:59.990Z,1027.62
2019-04-20T08:53:50.733Z,1027.62
2019-04-20T08:54:41.452Z,1027.62
2019-04-20T08:55:45.321Z,1027.58
2019-04-20T08:56:36.009Z,1027.58
2019-04-20T08:57:29.279Z,1027.58
2019-04-20T08:58:27.684Z,1027.52
2019-04-20T08:59:28.918Z,1027.54
2019-04-20T09:00:33.292Z,1027.53
2019-04-20T09:01:32.712Z,1027.54
2019-04-20T09:02:28.658Z,1027.56
2019-04-20T09:03:33.715Z,1027.56
2019-04-20T09:04:38.369Z,1027.51
2019-04-20T09:05:40.921Z,1027.49
2019-04-20T09:06:41.496Z,1027.49
2019-04-20T09:07:32.020Z,1027.53
2019-04-20T09:08:42.302Z,1027.51
2019-04-20T09:09:49.555Z,1027.51
2019-04-20T09:10:49.177Z,1027.51
2019-04-20T09:11:49.560Z,1027.48
2019-04-20T09:12:45.379Z,1027.45
2019-04-20T09:13:38.601Z,1027.45
2019-04-20T09:14:29.940Z,1027.48
2019-04-20T09:15:27.900Z,1027.46
2019-04-20T09:16:38.072Z,1027.41
2019-04-20T09:17:35.647Z,1027.43
2019-04-20T09:18:38.883Z,1027.41
2019-04-20T09:19:36.809Z,1027.40
2019-04-20T09:20:36.226Z,1027.41
2019-04-20T09:21:39.138Z,1027.39
2019-04-20T09:22:40.526Z,1027.41
2019-04-20T09:23:40.908Z,1027.40
2019-04-20T09:24:52.763Z,1027.38
2019-04-20T09:26:48.959Z,1027.36
2019-04-20T09:27:34.826Z,1027.30
2019-04-20T09:28:38.447Z,1027.29
2019-04-20T09:29:37.157Z,1027.33
2019-04-20T09:30:39.455Z,1027.29
2019-04-20T09:31:39.260Z,1027.28
2019-04-20T09:32:43.953Z,1027.25
2019-04-20T09:33:48.697Z,1027.32
2019-04-20T09:34:46.567Z,1027.28
2019-04-20T09:35:48.637Z,1027.26
2019-04-20T09:36:42.289Z,1027.28
2019-04-20T09:37:47.374Z,1027.27
2019-04-20T09:38:40.864Z,1027.31
2019-04-20T09:39:36.171Z,1027.25
2019-04-20T09:40:44.918Z,1027.20
2019-04-20T09:41:47.151Z,1027.22
2019-04-20T09:42:28.186Z,1027.25
2019-04-20T09:43:28.076Z,1027.26
2019-04-20T09:44:31.426Z,1027.25
2019-04-20T09:45:37.084Z,1027.22
2019-04-20T09:46:30.936Z,1027.23
2019-04-20T09:47:36.624Z,1027.26
2019-04-20T09:48:34.715Z,1027.25
2019-04-20T09:49:40.247Z,1027.29
2019-04-20T09:50:47.513Z,1027.27
2019-04-20T09:51:46.246Z,1027.29
2019-04-20T09:52:46.522Z,1027.26
2019-04-20T09:53:39.015Z,1027.24
2019-04-20T09:54:48.245Z,1027.25
2019-04-20T09:55:46.850Z,1027.19
2019-04-20T09:56:39.622Z,1027.15
2019-04-20T09:57:43.902Z,1027.17
2019-04-20T09:58:52.094Z,1027.21
2019-04-20T09:59:42.965Z,1027.16
2019-04-20T10:00:43.755Z,1027.19
2019-04-20T10:01:35.120Z,1027.22
2019-04-20T10:02:31.510Z,1027.18
2019-04-20T10:03:29.057Z,1027.23
2019-04-20T10:04:26.958Z,1027.17
2019-04-20T10:05:27.405Z,1027.25
2019-04-20T10:06:30.701Z,1027.31
2019-04-20T10:07:32.529Z,1027.31
2019-04-20T10:08:29.263Z,1027.30
2019-04-20T10:09:32.608Z,1027.30
2019-04-20T10:10:35.068Z,1027.29
2019-04-20T10:11:27.854Z,1027.24
2019-04-20T10:12:26.852Z,1027.29
2019-04-20T10:13:27.186Z,1027.30
2019-04-20T10:14:27.006Z,1027.31
2019-04-20T10:15:29.388Z,1027.30
2019-04-20T10:16:26.803Z,1027.29
2019-04-20T10:17:29.863Z,1027.28
2019-04-20T10:18:27.971Z,1027.31
2019-04-20T10:19:32.458Z,1027.30
2019-04-20T10:20:31.840Z,1027.30
2019-04-20T10:21:27.786Z,1027.30
2019-04-20T10:22:26.886Z,1027.24
2019-04-20T10:23:26.899Z,1027.30
2019-04-20T10:24:26.716Z,1027.28
2019-04-20T10:25:26.741Z,1027.24
2019-04-20T10:26:27.034Z,1027.24
2019-04-20T10:27:26.696Z,1027.30
2019-04-20T10:28:27.677Z,1027.29
2019-04-20T10:29:27.904Z,1027.27
2019-04-20T10:30:26.671Z,1027.28
2019-04-20T10:31:26.639Z,1027.26
2019-04-20T10:32:34.242Z,1027.29
2019-04-20T10:33:27.893Z,1027.22
2019-04-20T10:34:26.602Z,1027.23
2019-04-20T10:35:27.636Z,1027.24
2019-04-20T10:36:27.786Z,1027.23
2019-04-20T10:37:27.237Z,1027.23
2019-04-20T10:38:27.600Z,1027.17
2019-04-20T10:39:26.682Z,1027.19
2019-04-20T10:40:37.851Z,1027.17
2019-04-20T10:41:37.265Z,1027.16
2019-04-20T10:42:28.100Z,1027.20
2019-04-20T10:43:26.523Z,1027.17
2019-04-20T10:44:27.167Z,1027.19
2019-04-20T10:45:26.839Z,1027.12
2019-04-20T10:46:26.911Z,1027.20
2019-04-20T10:47:27.309Z,1027.24
2019-04-20T10:48:26.942Z,1027.28
2019-04-20T10:49:27.144Z,1027.25
2019-04-20T10:50:27.162Z,1027.25
2019-04-20T10:51:26.459Z,1027.27
2019-04-20T10:52:27.745Z,1027.31
2019-04-20T10:53:26.418Z,1027.30
2019-04-20T10:54:26.901Z,1027.26
2019-04-20T10:55:27.263Z,1027.27
2019-04-20T10:56:27.521Z,1027.26
2019-04-20T10:57:27.794Z,1027.28
2019-04-20T10:58:27.440Z,1027.28
2019-04-20T10:59:27.647Z,1027.24
2019-04-20T11:00:26.364Z,1027.25
2019-04-20T11:01:27.457Z,1027.26
2019-04-20T11:02:27.680Z,1027.29
2019-04-20T11:03:26.740Z,1027.28
2019-04-20T11:04:26.405Z,1027.23
2019-04-20T11:05:26.572Z,1027.23
2019-04-20T11:06:26.877Z,1027.24
2019-04-20T11:07:26.511Z,1027.18
2019-04-20T11:08:26.547Z,1027.16
2019-04-20T11:09:26.880Z,1027.17
2019-04-20T11:10:29.316Z,1027.13
2019-04-20T11:11:30.057Z,1027.08
2019-04-20T11:12:26.350Z,1027.05
2019-04-20T11:13:27.591Z,1027.01
2019-04-20T11:14:31.396Z,1027.07
2019-04-20T11:15:28.238Z,1027.06
2019-04-20T11:16:26.465Z,1026.94
2019-04-20T11:17:29.775Z,1027.11
2019-04-20T11:18:27.365Z,1027.11
2019-04-20T11:19:27.403Z,1027.11
2019-04-20T11:20:27.364Z,1027.06
2019-04-20T11:21:26.306Z,1027.09
2019-04-20T11:22:26.307Z,1027.10
2019-04-20T11:23:26.614Z,1027.13
2019-04-20T11:24:26.155Z,1027.13
2019-04-20T11:25:26.255Z,1027.14
2019-04-20T11:26:26.477Z,1027.19
2019-04-20T11:27:26.104Z,1027.09
2019-04-20T11:28:26.264Z,1027.04
2019-04-20T11:29:26.449Z,1027.15
2019-04-20T11:30:26.114Z,1027.09
2019-04-20T11:31:35.610Z,1027.09
2019-04-20T11:32:28.284Z,1027.07
2019-04-20T11:33:26.042Z,1027.10
2019-04-20T11:34:31.567Z,1027.10
2019-04-20T11:35:33.876Z,1027.04
2019-04-20T11:36:27.439Z,1027.01
2019-04-20T11:37:26.827Z,1026.95
2019-04-20T11:38:26.191Z,1026.91
2019-04-20T11:39:27.134Z,1026.99
2019-04-20T11:40:26.671Z,1026.99
2019-04-20T11:41:29.135Z,1026.98
2019-04-20T11:42:27.727Z,1026.94
2019-04-20T11:43:26.091Z,1026.96
2019-04-20T11:44:29.415Z,1026.92
2019-04-20T11:45:26.746Z,1026.91
2019-04-20T11:46:26.965Z,1026.95
2019-04-20T11:47:25.942Z,1026.95
2019-04-20T11:48:25.918Z,1026.87
2019-04-20T11:49:25.916Z,1026.91
2019-04-20T11:50:27.397Z,1026.87
2019-04-20T11:51:25.890Z,1026.79
2019-04-20T11:52:27.022Z,1026.79
2019-04-20T11:53:26.900Z,1026.80
2019-04-20T11:54:26.384Z,1026.79
2019-04-20T11:55:26.618Z,1026.76
2019-04-20T11:56:31.475Z,1026.74
2019-04-20T11:57:27.184Z,1026.76
2019-04-20T11:58:26.159Z,1026.74
2019-04-20T11:59:27.261Z,1026.72
2019-04-20T12:00:25.842Z,1026.67
2019-04-20T12:01:30.200Z,1026.72
2019-04-20T12:02:32.154Z,1026.66
2019-04-20T12:03:35.425Z,1026.66
2019-04-20T12:04:40.400Z,1026.68
2019-04-20T12:05:35.621Z,1026.63
2019-04-20T12:06:26.775Z,1026.65
2019-04-20T12:07:26.807Z,1026.62
2019-04-20T12:08:27.069Z,1026.61
2019-04-20T12:09:26.280Z,1026.59
2019-04-20T12:10:27.791Z,1026.53
2019-04-20T12:11:33.960Z,1026.59
2019-04-20T12:12:35.220Z,1026.51
2019-04-20T12:13:26.937Z,1026.53
2019-04-20T12:14:25.713Z,1026.48
2019-04-20T12:15:26.603Z,1026.47
2019-04-20T12:16:25.800Z,1026.46
2019-04-20T12:17:26.004Z,1026.50
2019-04-20T12:18:25.671Z,1026.43
2019-04-20T12:19:26.915Z,1026.44
2019-04-20T12:20:26.912Z,1026.48
2019-04-20T12:21:26.493Z,1026.46
2019-04-20T12:22:26.216Z,1026.44
2019-04-20T12:23:26.483Z,1026.52
2019-04-20T12:24:25.637Z,1026.52
2019-04-20T12:25:25.991Z,1026.45
2019-04-20T12:26:26.880Z,1026.36
2019-04-20T12:27:26.884Z,1026.33